Time;durP1;ratioP1;P1;durP2;ratioP2;P2;SDS_P1;SDS_P2;PMS_P1;PMS_P2;Temp;Humidity;BMP_temperature;BMP_pressure;BME280_temperature;BME280_humidity;BME280_pressure;Samples;Min_cycle;Max_cycle;Signal;HPM_P1;HPM_P2
2022/02/27 00:01:35;;;;;;;10.13;3.20;;;4.50;99.90;;;;;;5138341;23;20437;-65
2022/02/27 00:03:38;;;;;;;10.05;3.83;;;4.50;99.90;;;;;;5139275;23;20015;-65
2022/02/27 00:05:39;;;;;;;11.70;4.70;;;4.50;99.90;;;;;;5138431;23;20019;-65
2022/02/27 00:07:39;;;;;;;10.45;3.78;;;4.50;99.90;;;;;;5139357;23;20033;-65
2022/02/27 00:09:40;;;;;;;11.38;3.33;;;4.50;99.90;;;;;;5138882;23;20055;-65
2022/02/27 00:11:41;;;;;;;14.20;4.35;;;4.50;99.90;;;;;;5138075;23;20080;-65
2022/02/27 00:13:41;;;;;;;16.17;4.18;;;4.50;99.90;;;;;;5140008;23;20008;-65
2022/02/27 00:15:42;;;;;;;10.77;3.72;;;4.50;99.90;;;;;;5139530;23;20023;-65
2022/02/27 00:17:43;;;;;;;16.13;4.18;;;4.50;99.90;;;;;;5140381;23;20068;-65
2022/02/27 00:19:43;;;;;;;9.93;3.50;;;4.40;99.90;;;;;;5140201;23;20032;-65
2022/02/27 00:21:44;;;;;;;10.10;3.40;;;4.30;99.90;;;;;;5139368;23;20009;-65
2022/02/27 00:23:44;;;;;;;9.95;3.20;;;4.30;99.90;;;;;;5139834;23;20016;-65
2022/02/27 00:25:45;;;;;;;8.40;3.42;;;4.30;99.90;;;;;;5138811;23;20087;-65
2022/02/27 00:27:46;;;;;;;9.50;2.90;;;4.30;99.90;;;;;;5140036;23;20013;-65
2022/02/27 00:29:46;;;;;;;10.07;3.63;;;4.30;99.90;;;;;;5139680;23;20015;-65
2022/02/27 00:31:47;;;;;;;13.52;3.85;;;4.40;99.90;;;;;;5137014;23;20009;-65
2022/02/27 00:33:47;;;;;;;8.10;3.08;;;4.30;99.90;;;;;;5139662;23;20012;-65
2022/02/27 00:35:48;;;;;;;11.00;3.47;;;4.30;99.90;;;;;;5138418;23;20451;-66
2022/02/27 00:37:49;;;;;;;9.75;3.22;;;4.40;99.90;;;;;;5140062;23;20009;-65
2022/02/27 00:39:49;;;;;;;7.57;3.30;;;4.40;99.90;;;;;;5139997;23;20045;-65
2022/02/27 00:41:50;;;;;;;8.82;2.88;;;4.40;99.90;;;;;;5139076;23;20340;-65
2022/02/27 00:43:51;;;;;;;13.07;3.70;;;4.40;99.90;;;;;;5139921;23;20087;-66
2022/02/27 00:45:51;;;;;;;6.25;2.85;;;4.40;99.90;;;;;;5138653;23;20069;-65
2022/02/27 00:47:52;;;;;;;10.55;3.33;;;4.40;99.90;;;;;;5139685;23;20005;-65
2022/02/27 00:49:52;;;;;;;13.90;3.90;;;4.40;99.90;;;;;;5139514;23;20021;-65
2022/02/27 00:51:53;;;;;;;7.40;3.17;;;4.40;99.90;;;;;;5139092;23;20011;-65
2022/02/27 00:53:54;;;;;;;7.47;3.38;;;4.40;99.90;;;;;;5139433;22;20016;-66
2022/02/27 00:55:54;;;;;;;9.90;3.45;;;4.40;99.90;;;;;;5140178;22;20008;-66
2022/02/27 00:57:56;;;;;;;9.32;3.42;;;4.30;99.90;;;;;;5141286;22;20067;-66
2022/02/27 00:59:57;;;;;;;11.60;3.78;;;4.30;99.90;;;;;;5140297;22;20391;-65
2022/02/27 01:01:58;;;;;;;7.95;3.08;;;4.10;99.90;;;;;;5141145;23;20088;-65
2022/02/27 01:03:58;;;;;;;12.25;4.00;;;4.00;99.90;;;;;;5140207;22;20012;-65
2022/02/27 01:05:59;;;;;;;11.70;3.70;;;3.90;99.90;;;;;;5139095;23;20092;-65
2022/02/27 01:07:59;;;;;;;8.77;3.75;;;3.70;99.90;;;;;;5141258;23;20440;-65
2022/02/27 01:10:00;;;;;;;9.55;3.22;;;3.70;99.90;;;;;;5140630;23;20348;-65
2022/02/27 01:12:01;;;;;;;11.75;4.15;;;3.60;99.90;;;;;;5139439;23;20098;-65
2022/02/27 01:14:03;;;;;;;10.13;3.60;;;3.50;99.90;;;;;;5140630;23;20040;-65
2022/02/27 01:16:05;;;;;;;13.07;3.80;;;3.50;99.90;;;;;;5139453;23;20084;-65
2022/02/27 01:18:06;;;;;;;8.63;3.28;;;3.30;99.90;;;;;;5140351;23;20008;-65
2022/02/27 01:20:09;;;;;;;10.60;3.40;;;3.20;99.90;;;;;;5139629;23;20019;-66
2022/02/27 01:22:10;;;;;;;9.32;3.28;;;3.00;99.90;;;;;;5139592;23;20467;-65
2022/02/27 01:24:10;;;;;;;15.82;3.72;;;2.90;99.90;;;;;;5139435;23;20087;-65
2022/02/27 01:26:12;;;;;;;12.77;3.88;;;2.80;99.90;;;;;;5138731;23;20013;-65
2022/02/27 01:28:13;;;;;;;9.00;3.90;;;2.70;99.90;;;;;;5139554;23;20139;-65
2022/02/27 01:30:13;;;;;;;10.48;4.05;;;2.60;99.90;;;;;;5138656;23;20428;-66
2022/02/27 01:32:14;;;;;;;16.60;5.00;;;2.50;99.90;;;;;;5139637;23;20432;-66
2022/02/27 01:34:15;;;;;;;12.60;4.28;;;2.50;99.90;;;;;;5139799;23;20028;-66
2022/02/27 01:36:15;;;;;;;10.73;3.90;;;2.50;99.90;;;;;;5138724;23;20005;-66
2022/02/27 01:38:16;;;;;;;12.75;4.47;;;2.50;99.90;;;;;;5139414;23;20096;-65
2022/02/27 01:40:16;;;;;;;10.80;4.82;;;2.60;99.90;;;;;;5138487;23;20013;-66
2022/02/27 01:42:18;;;;;;;12.95;3.78;;;2.60;99.90;;;;;;5139024;23;20005;-66
2022/02/27 01:44:20;;;;;;;7.15;3.35;;;2.70;99.90;;;;;;5139061;23;20453;-65
2022/02/27 01:46:20;;;;;;;13.90;4.22;;;2.80;99.90;;;;;;5138850;23;20075;-65
2022/02/27 01:48:22;;;;;;;14.32;4.47;;;2.70;99.90;;;;;;5139372;23;20012;-64
2022/02/27 01:50:22;;;;;;;10.60;4.40;;;2.70;99.90;;;;;;5138312;23;20020;-65
2022/02/27 01:52:23;;;;;;;11.55;3.75;;;2.60;99.90;;;;;;5139179;23;20462;-65
2022/02/27 01:54:24;;;;;;;8.27;3.88;;;2.70;99.90;;;;;;5138884;23;20084;-65
2022/02/27 01:56:24;;;;;;;11.88;4.32;;;2.70;99.90;;;;;;5137637;22;20020;-66
2022/02/27 01:58:26;;;;;;;11.95;3.80;;;2.70;99.90;;;;;;5140583;22;20036;-66
2022/02/27 02:00:27;;;;;;;9.93;4.05;;;2.60;99.90;;;;;;5139448;22;20032;-65
2022/02/27 02:02:27;;;;;;;11.10;3.95;;;2.40;99.90;;;;;;5140414;22;20012;-65
2022/02/27 02:04:28;;;;;;;10.25;3.53;;;2.50;99.90;;;;;;5140156;22;20029;-66
2022/02/27 02:06:29;;;;;;;10.98;4.00;;;2.50;99.90;;;;;;5135965;23;20019;-65
2022/02/27 02:08:29;;;;;;;11.05;4.28;;;2.40;99.90;;;;;;5139806;23;20017;-65
2022/02/27 02:10:30;;;;;;;12.18;4.10;;;2.30;99.90;;;;;;5138943;23;20021;-65
2022/02/27 02:12:31;;;;;;;13.32;4.40;;;2.30;99.90;;;;;;5140070;23;20440;-66
2022/02/27 02:14:31;;;;;;;10.82;3.70;;;2.20;99.90;;;;;;5140217;23;20424;-65
2022/02/27 02:16:58;;;;;;;14.18;3.80;;;2.20;99.90;;;;;;5139170;23;20091;-65
2022/02/27 02:18:58;;;;;;;16.50;4.47;;;2.10;99.90;;;;;;5133963;23;20012;-65
2022/02/27 02:20:59;;;;;;;15.60;4.20;;;2.00;99.90;;;;;;5139428;23;20318;-65
2022/02/27 02:23:00;;;;;;;10.43;4.22;;;1.90;99.90;;;;;;5139858;23;20017;-65
2022/02/27 02:25:00;;;;;;;8.38;3.28;;;1.90;99.90;;;;;;5140210;23;20016;-65
2022/02/27 02:27:01;;;;;;;12.77;3.50;;;2.00;99.90;;;;;;5139410;23;20008;-65
2022/02/27 02:29:05;;;;;;;8.32;3.38;;;2.00;99.90;;;;;;5139675;23;20387;-65
2022/02/27 02:31:06;;;;;;;12.05;3.40;;;2.10;99.90;;;;;;5138662;23;20008;-65
2022/02/27 02:33:07;;;;;;;11.27;3.83;;;2.20;99.90;;;;;;5139928;23;20062;-65
2022/02/27 02:35:09;;;;;;;8.88;3.67;;;2.20;99.90;;;;;;5138792;23;20015;-66
2022/02/27 02:37:11;;;;;;;8.70;3.63;;;2.20;99.90;;;;;;5138807;23;20012;-66
2022/02/27 02:39:14;;;;;;;12.52;3.45;;;2.20;99.90;;;;;;5137165;23;20008;-65
2022/02/27 02:41:15;;;;;;;11.27;3.63;;;2.10;99.90;;;;;;5138444;23;20016;-65
2022/02/27 02:43:16;;;;;;;11.20;3.90;;;2.10;99.90;;;;;;5139136;23;20433;-65
2022/02/27 02:45:17;;;;;;;13.15;3.97;;;2.10;99.90;;;;;;5137681;23;20005;-65
2022/02/27 02:47:17;;;;;;;10.35;3.35;;;2.10;99.90;;;;;;5138695;23;20090;-65
2022/02/27 02:49:18;;;;;;;12.25;3.97;;;2.10;99.90;;;;;;5138678;23;20043;-65
2022/02/27 02:51:19;;;;;;;10.05;3.10;;;2.20;99.90;;;;;;5137911;23;20037;-66
2022/02/27 02:53:19;;;;;;;7.28;2.35;;;2.30;99.90;;;;;;5138967;23;20031;-66
2022/02/27 02:55:20;;;;;;;9.82;3.20;;;2.40;99.90;;;;;;5135601;23;20008;-65
2022/02/27 02:57:21;;;;;;;9.02;2.85;;;2.40;99.90;;;;;;5139421;23;20071;-66
2022/02/27 02:59:24;;;;;;;9.90;2.70;;;2.50;99.90;;;;;;5138851;23;20499;-65
2022/02/27 03:01:24;;;;;;;8.65;2.45;;;2.60;99.90;;;;;;5135965;23;20075;-65
2022/02/27 03:03:25;;;;;;;6.15;2.53;;;2.60;99.90;;;;;;5138681;23;20349;-66
2022/02/27 03:05:26;;;;;;;5.88;2.60;;;2.70;99.90;;;;;;5135653;23;20461;-66
2022/02/27 03:07:27;;;;;;;8.18;2.70;;;2.70;99.90;;;;;;5139899;23;20008;-65
2022/02/27 03:09:27;;;;;;;6.85;2.80;;;2.70;99.90;;;;;;5139570;23;20092;-65
2022/02/27 03:11:28;;;;;;;6.43;2.50;;;2.80;99.90;;;;;;5138967;23;20059;-65
2022/02/27 03:13:29;;;;;;;6.10;2.38;;;2.80;99.90;;;;;;5139838;23;20380;-66
2022/02/27 03:15:29;;;;;;;11.15;3.20;;;2.80;99.90;;;;;;5139018;23;20345;-65
2022/02/27 03:17:30;;;;;;;8.65;2.72;;;2.80;99.90;;;;;;5139757;23;20067;-65
2022/02/27 03:19:30;;;;;;;7.45;2.45;;;2.80;99.90;;;;;;5139626;23;20012;-66
2022/02/27 03:21:31;;;;;;;6.85;2.97;;;2.90;99.90;;;;;;5138863;23;20009;-65
2022/02/27 03:23:32;;;;;;;7.93;3.08;;;2.90;99.90;;;;;;5139571;23;20091;-65
2022/02/27 03:25:33;;;;;;;8.45;2.63;;;2.90;99.90;;;;;;5138898;23;20009;-65
2022/02/27 03:27:33;;;;;;;8.93;3.08;;;2.90;99.90;;;;;;5139416;23;20397;-66
2022/02/27 03:29:34;;;;;;;5.15;2.53;;;2.90;99.90;;;;;;5139226;23;20017;-65
2022/02/27 03:31:35;;;;;;;6.82;2.55;;;3.00;99.90;;;;;;5138481;23;20341;-65
2022/02/27 03:33:35;;;;;;;8.60;3.17;;;3.00;99.90;;;;;;5139015;23;20004;-65
2022/02/27 03:35:36;;;;;;;8.93;3.35;;;3.00;99.90;;;;;;5138320;23;20015;-65
2022/02/27 03:37:36;;;;;;;9.90;3.72;;;2.80;99.90;;;;;;5139167;23;20009;-65
2022/02/27 03:39:37;;;;;;;7.28;2.85;;;2.80;99.90;;;;;;5139228;23;20062;-65
2022/02/27 03:41:37;;;;;;;7.07;2.92;;;2.70;99.90;;;;;;5138312;23;20082;-65
2022/02/27 03:43:38;;;;;;;7.40;2.70;;;2.70;99.90;;;;;;5139356;23;20092;-65
2022/02/27 03:45:39;;;;;;;10.15;3.15;;;2.70;99.90;;;;;;5137465;23;20012;-65
2022/02/27 03:47:43;;;;;;;11.13;2.55;;;2.60;99.90;;;;;;5138388;23;20015;-65
2022/02/27 03:49:44;;;;;;;6.32;2.65;;;2.50;99.90;;;;;;5140126;23;20466;-65
2022/02/27 03:51:44;;;;;;;10.63;3.10;;;2.30;99.90;;;;;;5139341;23;20013;-65
2022/02/27 03:53:45;;;;;;;7.63;2.70;;;2.20;99.90;;;;;;5140561;23;20070;-65
2022/02/27 03:55:45;;;;;;;10.45;3.30;;;2.00;99.90;;;;;;5139034;23;20020;-65
2022/02/27 03:57:46;;;;;;;11.77;3.97;;;2.00;99.90;;;;;;5140419;23;20452;-65
2022/02/27 03:59:47;;;;;;;11.88;4.15;;;2.00;99.90;;;;;;5140264;23;20028;-65
2022/02/27 04:01:48;;;;;;;11.00;4.03;;;2.00;99.90;;;;;;5139023;23;20012;-65
2022/02/27 04:03:49;;;;;;;9.70;3.15;;;2.00;99.90;;;;;;5139598;23;20439;-65
2022/02/27 04:05:50;;;;;;;14.40;3.67;;;2.10;99.90;;;;;;5139652;23;20013;-66
2022/02/27 04:07:51;;;;;;;9.55;3.15;;;2.10;99.90;;;;;;5140388;23;20055;-65
2022/02/27 04:09:51;;;;;;;8.25;2.80;;;2.20;99.90;;;;;;5140128;23;20024;-65
2022/02/27 04:11:52;;;;;;;11.52;3.03;;;2.20;99.90;;;;;;5139331;23;20028;-66
2022/02/27 04:13:53;;;;;;;6.20;2.80;;;2.30;99.90;;;;;;5139849;23;20337;-65
2022/02/27 04:15:54;;;;;;;7.97;2.63;;;2.30;99.90;;;;;;5138571;23;20075;-65
2022/02/27 04:17:54;;;;;;;10.48;2.80;;;2.30;99.90;;;;;;5139766;23;20013;-65
2022/02/27 04:19:55;;;;;;;8.52;2.92;;;2.30;99.90;;;;;;5139762;23;20007;-65
2022/02/27 04:21:55;;;;;;;9.45;3.13;;;2.30;99.90;;;;;;5138987;23;20419;-65
2022/02/27 04:23:56;;;;;;;6.75;2.35;;;2.40;99.90;;;;;;5139161;23;20083;-66
2022/02/27 04:25:57;;;;;;;8.23;2.85;;;2.50;99.90;;;;;;5140310;23;20016;-65
2022/02/27 04:27:57;;;;;;;9.80;2.70;;;2.50;99.90;;;;;;5141411;23;20091;-66
2022/02/27 04:29:58;;;;;;;4.97;2.20;;;2.60;99.90;;;;;;5141002;23;20020;-66
2022/02/27 04:31:58;;;;;;;7.78;2.60;;;2.60;99.90;;;;;;5140103;23;20059;-66
2022/02/27 04:33:59;;;;;;;11.35;2.95;;;2.60;99.90;;;;;;5140591;23;20016;-66
2022/02/27 04:36:00;;;;;;;7.38;2.25;;;2.60;99.90;;;;;;5140003;23;20008;-66
2022/02/27 04:38:01;;;;;;;7.35;2.53;;;2.70;99.90;;;;;;5140864;23;20019;-65
2022/02/27 04:40:02;;;;;;;9.80;2.60;;;2.70;99.90;;;;;;5140452;23;20678;-65
2022/02/27 04:42:03;;;;;;;9.68;2.47;;;2.70;99.90;;;;;;5139747;23;20019;-65
2022/02/27 04:44:04;;;;;;;6.30;2.70;;;2.70;99.90;;;;;;5140734;23;20013;-65
2022/02/27 04:46:04;;;;;;;8.48;2.70;;;2.70;99.90;;;;;;5139938;23;20020;-65
2022/02/27 04:48:05;;;;;;;6.90;2.45;;;2.70;99.90;;;;;;5140525;23;20429;-65
2022/02/27 04:50:06;;;;;;;8.73;2.33;;;2.70;99.90;;;;;;5139836;23;20423;-65
2022/02/27 04:52:07;;;;;;;6.72;2.25;;;2.70;99.90;;;;;;5139901;23;20019;-65
2022/02/27 04:54:08;;;;;;;6.03;2.53;;;2.80;99.90;;;;;;5139901;23;20440;-65
2022/02/27 04:56:08;;;;;;;6.75;2.58;;;2.70;99.90;;;;;;5138514;23;20011;-65
2022/02/27 04:58:09;;;;;;;4.32;2.35;;;2.80;99.90;;;;;;5140124;23;20221;-65
2022/02/27 05:00:11;;;;;;;9.20;2.83;;;2.90;99.90;;;;;;5155218;22;25022;-67
2022/02/27 05:02:11;;;;;;;6.18;2.53;;;2.80;99.90;;;;;;5163541;22;20016;-65
2022/02/27 05:04:13;;;;;;;8.82;2.40;;;2.90;99.90;;;;;;5164698;22;20004;-65
2022/02/27 05:06:14;;;;;;;7.67;3.00;;;2.90;99.90;;;;;;5163658;22;20388;-65
2022/02/27 05:08:14;;;;;;;12.77;2.92;;;2.80;99.90;;;;;;5164566;22;20033;-65
2022/02/27 05:10:15;;;;;;;5.03;2.30;;;2.80;99.90;;;;;;5163416;22;20020;-66
2022/02/27 05:12:16;;;;;;;6.57;2.22;;;2.90;99.90;;;;;;5164138;22;20035;-65
2022/02/27 05:14:17;;;;;;;7.13;2.53;;;2.90;99.90;;;;;;5164070;22;20032;-65
2022/02/27 05:16:17;;;;;;;5.93;2.35;;;3.00;99.90;;;;;;5163631;22;20342;-65
2022/02/27 05:18:18;;;;;;;7.47;2.42;;;3.00;99.90;;;;;;5164072;22;20020;-65
2022/02/27 05:20:18;;;;;;;6.03;2.40;;;3.00;99.90;;;;;;5163189;22;20437;-65
2022/02/27 05:22:19;;;;;;;6.88;2.60;;;3.00;99.90;;;;;;5137721;23;20012;-65
2022/02/27 05:24:20;;;;;;;9.60;2.67;;;3.00;99.90;;;;;;5164022;22;20012;-65
2022/02/27 05:26:20;;;;;;;5.85;2.65;;;2.90;99.90;;;;;;5138181;22;20008;-67
2022/02/27 05:28:21;;;;;;;13.25;2.78;;;3.00;99.90;;;;;;5112209;23;20024;-66
2022/02/27 05:30:23;;;;;;;10.23;2.80;;;3.00;99.90;;;;;;5137990;23;20151;-66
2022/02/27 05:32:24;;;;;;;7.05;2.92;;;3.00;99.90;;;;;;5138257;23;20012;-65
2022/02/27 05:34:25;;;;;;;6.72;2.40;;;3.00;99.90;;;;;;5112635;23;20020;-65
2022/02/27 05:36:26;;;;;;;10.13;2.95;;;3.00;99.90;;;;;;5137804;23;20017;-65
2022/02/27 05:38:26;;;;;;;11.80;3.55;;;3.00;99.90;;;;;;5138662;23;20062;-65
2022/02/27 05:40:27;;;;;;;7.30;3.10;;;3.00;99.90;;;;;;5137814;23;20017;-65
2022/02/27 05:42:27;;;;;;;9.68;2.78;;;3.10;99.90;;;;;;5137012;23;20449;-65
2022/02/27 05:44:28;;;;;;;9.55;2.75;;;3.10;99.90;;;;;;5164991;23;20018;-65
2022/02/27 05:46:28;;;;;;;10.05;3.03;;;3.10;99.90;;;;;;5164138;23;20031;-65
2022/02/27 05:48:29;;;;;;;15.57;3.38;;;3.10;99.90;;;;;;5165107;23;20021;-66
2022/02/27 05:50:30;;;;;;;9.48;2.92;;;3.10;99.90;;;;;;5164112;23;20356;-65
2022/02/27 05:52:30;;;;;;;9.52;3.33;;;3.10;99.90;;;;;;5164886;23;20009;-65
2022/02/27 05:54:31;;;;;;;6.78;2.85;;;3.10;99.90;;;;;;5164978;23;20054;-66
2022/02/27 05:56:32;;;;;;;7.60;3.35;;;3.10;99.90;;;;;;5164193;23;20012;-65
2022/02/27 05:58:35;;;;;;;15.68;3.80;;;3.10;99.90;;;;;;5164596;23;20076;-64
2022/02/27 06:00:35;;;;;;;8.93;3.35;;;3.10;99.90;;;;;;5162537;23;20387;-64
2022/02/27 06:02:36;;;;;;;10.88;3.58;;;3.00;99.90;;;;;;5164762;23;20008;-64
2022/02/27 06:04:37;;;;;;;8.10;2.78;;;3.00;99.90;;;;;;5164302;23;20016;-64
2022/02/27 06:06:38;;;;;;;10.25;2.53;;;3.10;99.90;;;;;;5162897;23;20000;-65
2022/02/27 06:08:39;;;;;;;11.27;3.17;;;3.10;99.90;;;;;;5164194;23;20016;-64
2022/02/27 06:10:39;;;;;;;10.30;3.20;;;3.00;99.90;;;;;;5163567;23;20479;-65
2022/02/27 06:12:50;;;;;;;10.10;3.35;;;3.00;99.90;;;;;;5164235;23;20023;-64
2022/02/27 06:14:50;;;;;;;8.20;2.78;;;3.10;99.90;;;;;;5163481;23;20012;-64
2022/02/27 06:16:52;;;;;;;11.35;3.22;;;3.10;99.90;;;;;;5162498;23;20066;-65
2022/02/27 06:18:53;;;;;;;9.80;3.33;;;3.00;99.90;;;;;;5164056;23;20020;-64
2022/02/27 06:20:53;;;;;;;7.25;3.00;;;2.90;99.90;;;;;;5163083;23;20016;-64
2022/02/27 06:22:54;;;;;;;10.07;3.53;;;2.90;99.90;;;;;;5162067;23;20005;-64
2022/02/27 06:24:54;;;;;;;10.57;3.30;;;2.90;99.90;;;;;;5163383;23;20558;-64
2022/02/27 06:26:55;;;;;;;6.80;2.70;;;3.00;99.90;;;;;;5162536;23;20015;-65
2022/02/27 06:28:56;;;;;;;10.60;3.95;;;3.10;99.90;;;;;;5163217;23;20013;-64
2022/02/27 06:30:56;;;;;;;9.63;3.20;;;3.00;99.90;;;;;;5162233;23;20020;-65
2022/02/27 06:32:57;;;;;;;10.10;3.65;;;3.00;99.90;;;;;;5163489;23;20007;-65
2022/02/27 06:34:58;;;;;;;7.07;2.80;;;3.00;99.90;;;;;;5136455;23;20005;-64
2022/02/27 06:36:58;;;;;;;8.02;3.28;;;3.00;99.90;;;;;;5162108;23;20016;-65
2022/02/27 06:38:59;;;;;;;7.20;2.83;;;3.10;99.90;;;;;;5164628;23;20012;-65
2022/02/27 06:41:00;;;;;;;6.32;2.42;;;3.10;99.90;;;;;;5163812;23;20016;-65
2022/02/27 06:43:05;;;;;;;13.10;3.55;;;3.10;99.90;;;;;;5164398;23;20062;-64
2022/02/27 06:45:08;;;;;;;10.15;3.22;;;3.10;99.90;;;;;;5163773;23;20428;-67
2022/02/27 06:47:08;;;;;;;13.90;3.40;;;3.00;99.90;;;;;;5162618;23;20010;-64
2022/02/27 06:49:09;;;;;;;12.50;3.28;;;2.90;99.90;;;;;;5163626;23;20028;-64
2022/02/27 06:51:10;;;;;;;6.85;3.75;;;2.90;99.90;;;;;;5163215;23;20101;-64
2022/02/27 06:53:10;;;;;;;9.68;3.08;;;2.90;99.90;;;;;;5163192;23;21533;-65
2022/02/27 06:55:15;;;;;;;9.90;2.88;;;2.90;99.90;;;;;;5162973;23;20448;-65
2022/02/27 06:57:15;;;;;;;9.40;3.50;;;2.80;99.90;;;;;;5163505;23;20030;-64
2022/02/27 06:59:16;;;;;;;9.18;3.17;;;2.80;99.90;;;;;;5163261;22;20103;-64
2022/02/27 07:01:18;;;;;;;9.70;3.45;;;2.80;99.90;;;;;;5163229;22;20008;-64
2022/02/27 07:03:19;;;;;;;10.93;3.30;;;2.90;99.90;;;;;;5163721;22;20103;-64
2022/02/27 07:05:20;;;;;;;8.88;3.00;;;2.90;99.90;;;;;;5162838;22;20328;-64
2022/02/27 07:07:20;;;;;;;6.88;3.05;;;3.00;99.90;;;;;;5163773;22;20012;-64
2022/02/27 07:09:21;;;;;;;9.95;3.50;;;3.10;99.90;;;;;;5163180;22;20008;-64
2022/02/27 07:11:21;;;;;;;9.45;2.95;;;3.20;99.90;;;;;;5162212;22;20451;-65
2022/02/27 07:13:22;;;;;;;7.93;3.10;;;3.30;99.90;;;;;;5163878;22;20016;-65
2022/02/27 07:15:22;;;;;;;5.68;2.88;;;3.40;99.90;;;;;;5163014;22;20055;-65
2022/02/27 07:17:24;;;;;;;11.18;3.40;;;3.60;99.90;;;;;;5163984;22;20387;-64
2022/02/27 07:19:25;;;;;;;7.15;3.03;;;3.60;99.90;;;;;;5163912;22;20016;-65
2022/02/27 07:21:25;;;;;;;8.68;2.67;;;3.60;99.90;;;;;;5162996;22;20084;-64
2022/02/27 07:23:26;;;;;;;8.65;3.53;;;3.60;99.90;;;;;;5164709;22;20092;-65
2022/02/27 07:25:26;;;;;;;9.32;3.83;;;3.60;99.90;;;;;;5164032;22;20023;-65
2022/02/27 07:27:27;;;;;;;11.20;3.10;;;3.60;99.90;;;;;;5165520;22;20444;-65
2022/02/27 07:29:28;;;;;;;7.38;2.90;;;3.70;99.90;;;;;;5164816;22;20016;-64
2022/02/27 07:31:30;;;;;;;7.97;3.10;;;3.90;99.90;;;;;;5163692;22;20012;-64
2022/02/27 07:33:30;;;;;;;9.07;3.80;;;4.10;99.90;;;;;;5165172;22;20012;-65
2022/02/27 07:35:31;;;;;;;7.18;3.58;;;4.20;99.90;;;;;;5165832;22;20073;-65
2022/02/27 07:37:34;;;;;;;7.07;2.90;;;4.50;99.90;;;;;;5166861;22;20087;-65
2022/02/27 07:39:34;;;;;;;7.57;3.33;;;4.60;99.90;;;;;;5162795;23;20016;-65
2022/02/27 07:41:36;;;;;;;11.95;4.05;;;4.70;99.90;;;;;;5165236;22;20016;-66
2022/02/27 07:43:37;;;;;;;9.38;3.55;;;4.90;99.90;;;;;;5166302;22;20008;-65
2022/02/27 07:45:37;;;;;;;8.15;3.55;;;5.40;99.90;;;;;;5165061;22;20014;-65
2022/02/27 07:47:38;;;;;;;14.23;4.22;;;5.60;99.90;;;;;;5164908;22;20012;-65
2022/02/27 07:49:39;;;;;;;8.32;3.38;;;5.70;99.90;;;;;;5166311;22;20515;-64
2022/02/27 07:51:40;;;;;;;7.10;3.42;;;6.20;99.90;;;;;;5165257;22;20447;-65
2022/02/27 07:53:41;;;;;;;9.70;3.27;;;6.30;99.90;;;;;;5165860;22;20016;-65
2022/02/27 07:55:42;;;;;;;8.02;3.60;;;6.30;99.90;;;;;;5164575;22;20034;-64
2022/02/27 07:57:42;;;;;;;7.90;3.45;;;6.70;99.90;;;;;;5162370;23;20046;-65
2022/02/27 07:59:43;;;;;;;8.98;3.38;;;6.90;99.90;;;;;;5164623;22;20020;-65
2022/02/27 08:01:43;;;;;;;12.82;3.88;;;7.20;99.90;;;;;;5164580;22;20008;-65
2022/02/27 08:03:44;;;;;;;11.93;3.92;;;7.30;99.90;;;;;;5165474;22;20435;-65
2022/02/27 08:05:44;;;;;;;5.93;2.88;;;7.60;99.90;;;;;;5164915;22;20055;-65
2022/02/27 08:07:45;;;;;;;6.75;2.92;;;8.00;99.90;;;;;;5164920;22;20118;-65
2022/02/27 08:09:46;;;;;;;6.55;3.25;;;8.50;99.90;;;;;;5165178;22;20016;-66
2022/02/27 08:11:46;;;;;;;8.75;3.10;;;8.50;99.90;;;;;;5164225;22;20000;-65
2022/02/27 08:13:47;;;;;;;8.10;3.53;;;9.00;99.90;;;;;;5165192;22;20111;-65
2022/02/27 08:15:47;;;;;;;9.13;3.42;;;8.90;99.90;;;;;;5164291;22;20082;-65
2022/02/27 08:17:51;;;;;;;6.82;3.25;;;8.50;99.90;;;;;;5165008;22;20082;-65
2022/02/27 08:19:51;;;;;;;8.60;3.63;;;9.10;99.90;;;;;;5164660;22;20442;-65
2022/02/27 08:21:52;;;;;;;9.45;3.20;;;9.60;99.90;;;;;;5164137;22;20005;-65
2022/02/27 08:23:53;;;;;;;8.18;3.58;;;10.10;99.90;;;;;;5164767;22;20008;-66
2022/02/27 08:25:54;;;;;;;7.60;3.22;;;10.30;99.90;;;;;;5159986;22;20012;-66
2022/02/27 08:27:54;;;;;;;10.98;3.60;;;10.80;99.90;;;;;;5164810;22;20028;-65
2022/02/27 08:29:55;;;;;;;8.65;3.53;;;10.90;99.90;;;;;;5164684;22;20020;-65
2022/02/27 08:31:56;;;;;;;5.50;2.78;;;11.30;99.90;;;;;;5163934;22;20015;-65
2022/02/27 08:33:56;;;;;;;6.95;3.40;;;11.70;99.90;;;;;;5164308;22;20089;-65
2022/02/27 08:35:57;;;;;;;6.80;3.10;;;11.80;99.90;;;;;;5161795;22;20084;-65
2022/02/27 08:37:58;;;;;;;6.97;3.42;;;11.90;99.90;;;;;;5164493;22;20020;-66
2022/02/27 08:39:58;;;;;;;10.10;3.70;;;12.20;99.90;;;;;;5163965;22;20057;-65
2022/02/27 08:42:00;;;;;;;6.53;3.15;;;12.20;99.90;;;;;;5163475;22;20008;-66
2022/02/27 08:44:01;;;;;;;9.80;3.30;;;12.30;99.90;;;;;;5161046;22;20079;-66
2022/02/27 08:46:01;;;;;;;8.25;3.83;;;12.40;99.90;;;;;;5165311;22;20451;-65
2022/02/27 08:48:03;;;;;;;7.07;3.17;;;12.20;99.90;;;;;;5164404;22;20035;-65
2022/02/27 08:50:05;;;;;;;7.07;3.33;;;12.30;99.90;;;;;;5164262;22;20012;-66
2022/02/27 08:52:06;;;;;;;8.88;3.45;;;11.90;99.90;;;;;;5164106;22;20008;-65
2022/02/27 08:54:07;;;;;;;7.93;3.40;;;11.70;99.90;;;;;;5164318;22;20179;-65
2022/02/27 08:56:07;;;;;;;7.68;3.17;;;11.60;99.50;;;;;;5163819;22;20015;-65
2022/02/27 08:58:08;;;;;;;6.43;3.17;;;11.70;99.90;;;;;;5165006;22;20501;-65
2022/02/27 09:00:11;;;;;;;8.73;3.47;;;11.30;99.90;;;;;;5163885;22;20024;-65
2022/02/27 09:02:11;;;;;;;9.75;3.65;;;11.40;99.90;;;;;;5163751;22;20087;-65
2022/02/27 09:04:12;;;;;;;8.52;3.42;;;11.40;99.90;;;;;;5163887;22;20013;-65
2022/02/27 09:06:12;;;;;;;6.50;3.50;;;11.00;99.90;;;;;;5163716;22;20421;-65
2022/02/27 09:08:13;;;;;;;9.27;3.42;;;11.20;99.90;;;;;;5164530;22;20162;-65
2022/02/27 09:10:14;;;;;;;8.38;3.60;;;11.20;99.90;;;;;;5162560;22;20027;-65
2022/02/27 09:12:14;;;;;;;8.48;3.35;;;11.10;99.90;;;;;;5164460;22;20082;-65
2022/02/27 09:14:15;;;;;;;7.25;3.50;;;11.30;99.90;;;;;;5164062;22;20008;-65
2022/02/27 09:16:15;;;;;;;8.35;3.53;;;11.10;99.90;;;;;;5163341;22;20008;-65
2022/02/27 09:18:16;;;;;;;8.25;3.60;;;11.00;99.90;;;;;;5164410;22;20017;-65
2022/02/27 09:20:17;;;;;;;7.38;3.50;;;10.70;99.90;;;;;;5162666;22;20070;-65
2022/02/27 09:22:18;;;;;;;8.63;3.58;;;10.90;99.90;;;;;;5163800;22;20061;-65
2022/02/27 09:24:18;;;;;;;8.63;3.42;;;10.60;99.90;;;;;;5163287;22;20015;-65
2022/02/27 09:26:19;;;;;;;9.38;3.47;;;10.70;99.90;;;;;;5163150;22;20020;-65
2022/02/27 09:28:19;;;;;;;8.38;3.03;;;10.50;99.90;;;;;;5163633;22;20008;-65
2022/02/27 09:30:20;;;;;;;6.32;3.17;;;10.50;99.90;;;;;;5162185;22;20089;-65
2022/02/27 09:32:21;;;;;;;7.63;3.05;;;10.40;99.90;;;;;;5163435;22;20083;-65
2022/02/27 09:34:22;;;;;;;9.90;3.38;;;10.40;99.90;;;;;;5163302;22;20036;-65
2022/02/27 09:36:26;;;;;;;6.53;3.05;;;10.40;99.90;;;;;;5160460;23;20376;-65
2022/02/27 09:38:26;;;;;;;7.93;3.20;;;10.40;99.90;;;;;;5162695;22;20027;-65
2022/02/27 09:40:27;;;;;;;8.73;3.17;;;10.50;99.90;;;;;;5162629;22;20019;-66
2022/02/27 09:42:30;;;;;;;15.00;2.75;;;10.40;98.70;;;;;;5163406;22;20099;-65
2022/02/27 09:44:41;;;;;;;5.60;2.58;;;10.00;99.30;;;;;;5162964;22;20019;-66
2022/02/27 09:46:48;;;;;;;5.15;2.20;;;9.90;98.60;;;;;;5161846;22;20015;-64
2022/02/27 09:48:49;;;;;;;6.30;2.40;;;10.00;99.70;;;;;;5163105;22;20089;-65
2022/02/27 09:50:51;;;;;;;10.18;3.08;;;10.00;97.20;;;;;;5162800;22;20407;-65
2022/02/27 09:52:53;;;;;;;5.85;2.35;;;9.70;98.10;;;;;;5162964;22;20014;-65
2022/02/27 09:54:53;;;;;;;7.53;2.50;;;9.60;97.50;;;;;;5162957;22;20123;-64
2022/02/27 09:56:54;;;;;;;6.15;2.10;;;9.70;97.30;;;;;;5162520;22;20046;-66
2022/02/27 09:58:55;;;;;;;7.80;2.55;;;9.70;99.60;;;;;;5163135;22;20032;-65
2022/02/27 10:00:55;;;;;;;8.48;2.35;;;9.50;95.90;;;;;;5162627;22;20012;-64
2022/02/27 10:03:12;;;;;;;5.72;2.22;;;9.60;97.60;;;;;;5162561;22;20027;-65
2022/02/27 10:05:24;;;;;;;8.00;2.67;;;9.30;96.20;;;;;;5161958;22;20321;-64
2022/02/27 10:07:25;;;;;;;9.18;3.03;;;9.20;96.40;;;;;;5157241;22;20432;-65
2022/02/27 10:09:25;;;;;;;8.70;2.60;;;9.10;96.70;;;;;;5160953;23;20027;-64
2022/02/27 10:11:26;;;;;;;5.43;2.13;;;9.10;98.00;;;;;;5161977;22;20058;-65
2022/02/27 10:13:51;;;;;;;8.40;2.38;;;9.10;98.30;;;;;;5162099;22;20040;-65
2022/02/27 10:16:02;;;;;;;6.57;2.58;;;9.20;97.00;;;;;;5161539;22;20020;-64
2022/02/27 10:18:13;;;;;;;6.82;2.55;;;9.30;98.00;;;;;;5162841;22;20044;-65
2022/02/27 10:20:16;;;;;;;9.25;2.17;;;9.20;98.10;;;;;;5161701;22;20012;-65
2022/02/27 10:22:16;;;;;;;7.82;2.40;;;9.20;98.30;;;;;;5161809;23;20432;-64
2022/02/27 10:24:17;;;;;;;8.05;2.22;;;9.30;95.80;;;;;;5162501;22;20065;-65
2022/02/27 10:26:25;;;;;;;4.88;2.30;;;9.40;99.90;;;;;;5162390;22;20435;-64
2022/02/27 10:28:25;;;;;;;7.97;2.60;;;9.50;97.60;;;;;;5161093;22;20008;-65
2022/02/27 10:30:31;;;;;;;5.72;2.20;;;9.50;97.30;;;;;;5162167;22;20559;-65
2022/02/27 10:32:33;;;;;;;7.05;2.58;;;9.50;95.00;;;;;;5161149;22;20519;-65
2022/02/27 10:34:36;;;;;;;4.47;2.10;;;9.40;99.70;;;;;;5163136;22;20008;-64
2022/02/27 10:36:36;;;;;;;5.95;2.60;;;9.50;97.00;;;;;;5162790;22;20231;-64